createdAt,value
2023-11-08T00:01:04.879Z,7.45
2023-11-08T00:04:07.854Z,7.49
2023-11-08T00:07:10.732Z,7.47
2023-11-08T00:10:15.207Z,7.37
2023-11-08T00:13:21.513Z,7.61
2023-11-08T00:16:23.884Z,7.61
2023-11-08T00:19:26.497Z,7.83
2023-11-08T00:22:28.835Z,7.73
2023-11-08T00:25:31.168Z,7.84
2023-11-08T00:28:33.962Z,7.91
2023-11-08T00:31:36.248Z,7.88
2023-11-08T00:34:38.831Z,7.91
2023-11-08T00:37:41.218Z,7.96
2023-11-08T00:40:43.502Z,8.01
2023-11-08T00:43:46.333Z,8.05
2023-11-08T00:46:48.826Z,7.98
2023-11-08T00:49:51.317Z,8.14
2023-11-08T00:52:54.914Z,8.10
2023-11-08T00:55:57.280Z,8.09
2023-11-08T00:58:59.621Z,8.07
2023-11-08T01:02:01.962Z,8.19
2023-11-08T01:05:04.501Z,7.97
2023-11-08T01:08:07.052Z,8.09
2023-11-08T01:11:09.337Z,7.89
2023-11-08T01:14:11.866Z,8.06
2023-11-08T01:17:14.269Z,8.17
2023-11-08T01:20:16.645Z,8.07
2023-11-08T01:23:18.949Z,7.99
2023-11-08T01:26:21.821Z,8.19
2023-11-08T01:29:24.101Z,8.27
2023-11-08T01:32:26.515Z,8.17
2023-11-08T01:35:29.028Z,7.91
2023-11-08T01:38:32.153Z,7.88
2023-11-08T01:41:34.394Z,8.11
2023-11-08T01:44:36.675Z,7.92
2023-11-08T01:47:40.701Z,8.04
2023-11-08T01:50:43.119Z,7.95
2023-11-08T01:53:45.543Z,7.97
2023-11-08T01:56:48.462Z,7.87
2023-11-08T01:59:52.527Z,7.93
2023-11-08T02:02:54.901Z,7.98
2023-11-08T02:05:58.741Z,8.05
2023-11-08T02:09:04.671Z,7.91
2023-11-08T02:12:07.317Z,8.00
2023-11-08T02:15:12.810Z,8.01
2023-11-08T02:18:15.247Z,7.88
2023-11-08T02:21:19.283Z,7.85
2023-11-08T02:24:22.323Z,7.86
2023-11-08T02:27:24.773Z,7.77
2023-11-08T02:30:27.525Z,7.68
2023-11-08T02:33:29.994Z,7.53
2023-11-08T02:36:32.742Z,7.46
2023-11-08T02:39:35.142Z,7.62
2023-11-08T02:42:40.832Z,7.80
2023-11-08T02:45:43.255Z,7.96
2023-11-08T02:48:45.696Z,7.72
2023-11-08T02:51:48.167Z,7.91
2023-11-08T02:54:52.596Z,7.92
2023-11-08T02:57:55.155Z,7.99
2023-11-08T03:00:58.248Z,7.91
2023-11-08T03:04:00.666Z,7.78
2023-11-08T03:07:04.082Z,7.78
2023-11-08T03:10:06.835Z,7.75
2023-11-08T03:13:09.114Z,7.80
2023-11-08T03:16:11.825Z,7.65
2023-11-08T03:19:14.181Z,7.71
2023-11-08T03:22:17.487Z,7.76
2023-11-08T03:25:19.795Z,7.81
2023-11-08T03:28:22.705Z,7.83
2023-11-08T03:31:25.081Z,7.76
2023-11-08T03:34:28.483Z,7.75
2023-11-08T03:37:30.869Z,7.78
2023-11-08T03:40:33.161Z,7.72
2023-11-08T03:43:35.565Z,7.70
2023-11-08T03:46:37.999Z,7.90
2023-11-08T03:49:40.912Z,7.87
2023-11-08T03:52:43.283Z,7.77
2023-11-08T03:55:45.684Z,7.83
2023-11-08T03:58:48.016Z,7.74
2023-11-08T04:01:50.268Z,7.76
2023-11-08T04:04:52.826Z,7.70
2023-11-08T04:07:55.198Z,7.69
2023-11-08T04:10:57.556Z,7.73
2023-11-08T04:14:01.145Z,7.71
2023-11-08T04:17:04.020Z,7.68
2023-11-08T04:20:07.576Z,7.55
2023-11-08T04:23:09.868Z,7.51
2023-11-08T04:26:12.259Z,7.43
2023-11-08T04:29:15.151Z,7.37
2023-11-08T04:32:17.421Z,7.34
2023-11-08T04:35:19.846Z,7.07
2023-11-08T04:38:22.155Z,7.08
2023-11-08T04:41:24.425Z,6.89
2023-11-08T04:44:26.812Z,6.91
2023-11-08T04:47:29.271Z,7.02
2023-11-08T04:50:31.632Z,7.06
2023-11-08T04:53:34.251Z,7.07
2023-11-08T04:56:36.787Z,6.99
2023-11-08T04:59:39.165Z,6.96
2023-11-08T05:02:42.871Z,6.79
2023-11-08T05:05:45.183Z,6.60
2023-11-08T05:08:47.487Z,6.72
2023-11-08T05:11:51.119Z,6.61
2023-11-08T05:14:54.515Z,6.48
2023-11-08T05:18:00.529Z,6.40
2023-11-08T05:21:02.889Z,6.32
2023-11-08T05:24:05.314Z,6.34
2023-11-08T05:27:07.596Z,6.33
2023-11-08T05:30:10.535Z,6.22
2023-11-08T05:33:12.964Z,6.27
2023-11-08T05:36:17.479Z,6.25
2023-11-08T05:39:26.278Z,6.34
2023-11-08T05:42:29.655Z,6.26
2023-11-08T05:45:32.014Z,6.45
2023-11-08T05:48:34.396Z,6.63
2023-11-08T05:51:36.881Z,6.63
2023-11-08T05:54:39.240Z,6.85
2023-11-08T05:57:41.993Z,6.84
2023-11-08T06:00:44.989Z,6.96
2023-11-08T06:03:48.271Z,7.16
2023-11-08T06:06:51.881Z,7.05
2023-11-08T06:09:54.949Z,6.95
2023-11-08T06:12:58.110Z,7.08
2023-11-08T06:16:00.733Z,7.07
2023-11-08T06:19:03.303Z,7.03
2023-11-08T06:22:05.821Z,7.05
2023-11-08T06:25:08.794Z,7.01
2023-11-08T06:28:11.395Z,7.32
2023-11-08T06:31:14.742Z,7.24
2023-11-08T06:34:17.065Z,7.29
2023-11-08T06:37:19.385Z,7.19
2023-11-08T06:40:21.818Z,7.35
2023-11-08T06:43:24.331Z,7.43
2023-11-08T06:46:26.688Z,7.31
2023-11-08T06:49:29.136Z,7.15
2023-11-08T06:52:31.584Z,7.52
2023-11-08T06:55:39.122Z,7.49
2023-11-08T06:58:42.168Z,7.26
2023-11-08T07:01:44.509Z,7.38
2023-11-08T07:04:47.018Z,7.16
2023-11-08T07:07:49.252Z,7.33
2023-11-08T07:10:54.521Z,7.41
2023-11-08T07:13:57.046Z,7.59
2023-11-08T07:16:59.423Z,7.67
2023-11-08T07:20:01.796Z,7.80
2023-11-08T07:23:04.445Z,7.83
2023-11-08T07:26:06.728Z,7.77
2023-11-08T07:29:09.305Z,7.62
2023-11-08T07:32:14.331Z,7.98
2023-11-08T07:35:16.607Z,7.84
2023-11-08T07:38:18.995Z,8.04
2023-11-08T07:41:21.339Z,7.92
2023-11-08T07:44:23.672Z,8.09
2023-11-08T07:47:26.235Z,8.10
2023-11-08T07:50:29.612Z,8.22
2023-11-08T07:53:32.373Z,8.26
2023-11-08T07:56:34.712Z,8.33
2023-11-08T07:59:37.005Z,8.17
2023-11-08T08:03:17.251Z,8.23
2023-11-08T08:06:21.343Z,8.11
2023-11-08T08:09:23.991Z,8.34
2023-11-08T08:12:30.873Z,8.18
2023-11-08T08:15:35.979Z,8.11
2023-11-08T08:18:38.479Z,8.41
2023-11-08T08:21:40.941Z,8.23
2023-11-08T08:24:43.293Z,8.27
2023-11-08T08:27:45.774Z,8.27
2023-11-08T08:30:48.357Z,8.28
2023-11-08T08:33:51.647Z,8.21
2023-11-08T08:36:54.101Z,8.25
2023-11-08T08:39:56.705Z,8.24
2023-11-08T08:42:59.225Z,8.13
2023-11-08T08:46:01.580Z,8.14
2023-11-08T08:49:04.025Z,8.10
2023-11-08T08:52:07.257Z,8.06
2023-11-08T08:55:16.078Z,8.19
2023-11-08T08:58:18.500Z,8.21
2023-11-08T09:01:21.461Z,8.22
2023-11-08T09:04:24.816Z,8.26
2023-11-08T09:07:27.200Z,8.58
2023-11-08T09:10:29.443Z,8.48
2023-11-08T09:13:31.750Z,8.42
2023-11-08T09:16:36.089Z,8.48
2023-11-08T09:19:38.436Z,8.48
2023-11-08T09:22:42.358Z,8.55
2023-11-08T09:25:44.959Z,8.77
2023-11-08T09:28:47.353Z,8.74
2023-11-08T09:31:49.700Z,9.02
2023-11-08T09:34:52.187Z,8.84
2023-11-08T09:37:56.260Z,8.80
2023-11-08T09:40:59.347Z,8.63
2023-11-08T09:44:02.766Z,8.53
2023-11-08T09:47:05.647Z,8.82
2023-11-08T09:50:13.983Z,9.01
2023-11-08T09:53:17.289Z,8.95
2023-11-08T09:56:19.899Z,8.86
2023-11-08T09:59:22.905Z,8.87
2023-11-08T10:02:25.854Z,8.85
2023-11-08T10:05:28.800Z,8.86
2023-11-08T10:08:31.984Z,8.92
2023-11-08T10:11:36.865Z,8.73
2023-11-08T10:14:45.748Z,9.09
2023-11-08T10:19:31.421Z,9.19
2023-11-08T10:21:18.534Z,9.16
2023-11-08T10:24:20.927Z,9.37
2023-11-08T10:27:24.182Z,9.48
2023-11-08T10:30:28.158Z,9.60
2023-11-08T10:33:30.523Z,9.72
2023-11-08T10:36:36.317Z,9.48
2023-11-08T10:39:38.727Z,9.26
2023-11-08T10:42:42.312Z,9.34
2023-11-08T10:45:44.715Z,9.47
2023-11-08T10:48:47.120Z,9.47
2023-11-08T10:51:51.476Z,9.56
2023-11-08T10:54:53.890Z,9.69
2023-11-08T10:58:02.394Z,10.10
2023-11-08T11:01:05.621Z,10.42
2023-11-08T11:04:15.341Z,10.39
2023-11-08T11:07:18.932Z,10.29
2023-11-08T11:10:21.316Z,9.83
2023-11-08T11:13:34.383Z,10.16
2023-11-08T11:16:43.030Z,10.25
2023-11-08T11:19:46.262Z,9.88
2023-11-08T11:22:49.745Z,10.06
2023-11-08T11:25:52.172Z,10.13
2023-11-08T11:28:58.726Z,9.86
2023-11-08T11:32:05.040Z,9.98
2023-11-08T11:35:07.740Z,10.06
2023-11-08T11:38:11.515Z,10.05
2023-11-08T11:41:26.300Z,10.24
2023-11-08T11:44:45.904Z,10.16
2023-11-08T11:47:52.866Z,9.97
2023-11-08T11:50:56.244Z,10.03
2023-11-08T11:53:59.762Z,10.16
2023-11-08T11:57:02.156Z,10.09
2023-11-08T12:00:06.546Z,9.98
2023-11-08T12:03:13.022Z,9.92
2023-11-08T12:06:15.461Z,9.79
2023-11-08T12:09:17.867Z,9.81
2023-11-08T12:12:45.727Z,9.71
2023-11-08T12:16:01.781Z,9.80
2023-11-08T12:19:04.402Z,9.75
2023-11-08T12:22:06.994Z,9.69
2023-11-08T12:25:11.278Z,9.78
2023-11-08T12:28:13.799Z,9.46
2023-11-08T12:31:21.531Z,9.63
2023-11-08T12:34:24.009Z,9.68
2023-11-08T12:37:26.386Z,9.61
2023-11-08T12:40:29.118Z,9.56
2023-11-08T12:43:59.367Z,9.62
2023-11-08T12:47:08.268Z,9.39
2023-11-08T12:50:14.931Z,9.29
2023-11-08T12:53:17.490Z,9.32
2023-11-08T12:56:20.729Z,9.29
2023-11-08T12:59:24.263Z,9.44
2023-11-08T13:02:26.692Z,9.25
2023-11-08T13:05:29.272Z,9.06
2023-11-08T13:08:32.562Z,9.28
2023-11-08T13:11:35.088Z,9.32
2023-11-08T13:14:37.564Z,9.53
2023-11-08T13:17:39.925Z,9.41
2023-11-08T13:20:46.807Z,9.15
2023-11-08T13:24:02.621Z,9.22
2023-11-08T13:27:09.682Z,9.29
2023-11-08T13:30:14.295Z,9.35
2023-11-08T13:33:16.824Z,9.26
2023-11-08T13:36:27.484Z,9.43
2023-11-08T13:39:30.327Z,9.45
2023-11-08T13:42:32.635Z,9.59
2023-11-08T13:45:35.484Z,9.44
2023-11-08T13:48:38.483Z,9.41
2023-11-08T13:51:41.099Z,9.43
2023-11-08T13:54:44.257Z,9.48
2023-11-08T13:57:50.432Z,9.32
2023-11-08T14:00:52.928Z,9.03
2023-11-08T14:03:55.555Z,9.05
2023-11-08T14:06:58.518Z,8.97
2023-11-08T14:10:01.417Z,8.93
2023-11-08T14:13:04.818Z,8.77
2023-11-08T14:16:08.970Z,8.80
2023-11-08T14:19:11.559Z,8.75
2023-11-08T14:22:14.338Z,8.77
2023-11-08T14:25:16.674Z,8.70
2023-11-08T14:28:20.112Z,8.79
2023-11-08T14:31:25.225Z,8.85
2023-11-08T14:43:42.576Z,8.64
2023-11-08T14:46:45.145Z,8.49
2023-11-08T14:49:48.506Z,8.42
2023-11-08T14:52:51.539Z,8.42
2023-11-08T14:55:55.037Z,8.32
2023-11-08T14:58:57.712Z,8.16
2023-11-08T15:02:00.419Z,8.03
2023-11-08T15:05:04.011Z,7.90
2023-11-08T15:09:48.527Z,7.90
2023-11-08T15:11:29.721Z,7.97
2023-11-08T15:14:32.356Z,7.99
2023-11-08T15:17:35.040Z,7.98
2023-11-08T15:20:38.441Z,8.09
2023-11-08T15:23:42.314Z,8.13
2023-11-08T15:26:45.098Z,8.12
2023-11-08T15:29:47.789Z,8.22
2023-11-08T15:32:50.433Z,8.21
2023-11-08T15:35:53.595Z,8.25
2023-11-08T15:38:56.300Z,8.30
2023-11-08T15:41:59.001Z,8.21
2023-11-08T15:45:01.753Z,8.35
2023-11-08T15:48:04.840Z,8.31
2023-11-08T15:51:07.688Z,8.31
2023-11-08T15:54:10.973Z,8.18
2023-11-08T15:57:13.685Z,8.19
2023-11-08T16:00:16.608Z,8.04
2023-11-08T16:03:19.282Z,8.01
2023-11-08T16:06:23.903Z,8.06
2023-11-08T16:09:31.538Z,7.97
2023-11-08T16:12:35.174Z,8.11
2023-11-08T16:15:39.461Z,8.07
2023-11-08T16:18:42.376Z,7.79
2023-11-08T16:21:50.544Z,7.72
2023-11-08T16:24:53.346Z,7.75
2023-11-08T16:27:59.363Z,7.79
2023-11-08T16:32:29.955Z,7.82
2023-11-08T16:34:25.416Z,7.72
2023-11-08T16:37:28.847Z,7.82
2023-11-08T16:40:35.005Z,7.82
2023-11-08T16:43:37.717Z,7.80
2023-11-08T16:46:40.577Z,7.69
2023-11-08T16:49:47.615Z,7.74
2023-11-08T16:52:50.725Z,7.79
2023-11-08T16:55:53.333Z,7.74
2023-11-08T16:59:01.272Z,7.72
2023-11-08T17:02:04.386Z,7.69
2023-11-08T17:05:07.084Z,7.72
2023-11-08T17:12:17.902Z,7.73
2023-11-08T17:15:21.659Z,7.68
2023-11-08T17:18:23.979Z,7.62
2023-11-08T17:21:31.136Z,7.55
2023-11-08T17:24:33.607Z,7.54
2023-11-08T17:27:35.876Z,7.55
2023-11-08T17:30:38.180Z,7.57
2023-11-08T17:33:40.536Z,7.61
2023-11-08T17:36:42.995Z,7.67
2023-11-08T17:39:45.502Z,7.76
2023-11-08T17:42:47.922Z,7.74
2023-11-08T17:45:50.244Z,7.82
2023-11-08T17:48:52.733Z,7.79
2023-11-08T17:51:55.056Z,7.86
2023-11-08T17:54:59.364Z,7.92
2023-11-08T17:58:01.878Z,7.88
2023-11-08T18:01:13.293Z,7.88
2023-11-08T18:04:15.803Z,7.76
2023-11-08T18:07:19.435Z,7.94
2023-11-08T18:10:22.192Z,7.91
2023-11-08T18:13:24.820Z,7.75
2023-11-08T18:16:27.157Z,7.87
2023-11-08T18:19:29.591Z,7.86
2023-11-08T18:22:32.995Z,7.92
2023-11-08T18:25:35.502Z,7.93
2023-11-08T18:28:37.952Z,7.81
2023-11-08T18:31:40.441Z,7.86
2023-11-08T18:34:43.112Z,7.84
2023-11-08T18:37:45.471Z,7.80
2023-11-08T18:40:49.132Z,7.84
2023-11-08T18:43:54.934Z,7.85
2023-11-08T18:46:57.304Z,7.85
2023-11-08T18:50:00.283Z,7.89
2023-11-08T18:53:02.598Z,7.89
2023-11-08T18:56:08.730Z,7.91
2023-11-08T18:59:13.475Z,7.87
2023-11-08T19:02:15.942Z,7.95
2023-11-08T19:05:20.570Z,7.90
2023-11-08T19:08:23.469Z,7.87
2023-11-08T19:11:29.299Z,7.78
2023-11-08T19:14:31.680Z,7.80
2023-11-08T19:17:34.002Z,7.76
2023-11-08T19:20:36.320Z,7.79
2023-11-08T19:23:38.997Z,7.79
2023-11-08T19:26:41.474Z,7.83
2023-11-08T19:29:43.773Z,7.78
2023-11-08T19:32:46.480Z,7.82
2023-11-08T19:35:49.010Z,7.84
2023-11-08T19:38:51.481Z,7.79
2023-11-08T19:41:53.851Z,7.87
2023-11-08T19:45:00.829Z,7.78
2023-11-08T19:48:03.568Z,7.70
2023-11-08T19:51:06.136Z,7.76
2023-11-08T19:54:08.626Z,7.62
2023-11-08T19:57:10.968Z,7.75
2023-11-08T20:00:13.682Z,7.74
2023-11-08T20:03:16.155Z,7.71
2023-11-08T20:06:18.648Z,7.68
2023-11-08T20:09:22.026Z,7.73
2023-11-08T20:12:24.349Z,7.69
2023-11-08T20:15:26.683Z,7.68
2023-11-08T20:18:33.191Z,7.72
2023-11-08T20:21:35.497Z,7.56
2023-11-08T20:24:37.832Z,7.57
2023-11-08T20:27:40.148Z,7.67
2023-11-08T20:30:42.508Z,7.69
2023-11-08T20:33:44.962Z,7.72
2023-11-08T20:36:47.464Z,7.67
2023-11-08T20:39:49.877Z,7.72
2023-11-08T20:42:52.986Z,7.63
2023-11-08T20:45:55.684Z,7.68
2023-11-08T20:48:58.092Z,7.58
2023-11-08T20:52:00.538Z,7.58
2023-11-08T20:55:04.334Z,7.65
2023-11-08T20:58:07.404Z,7.71
2023-11-08T21:01:10.004Z,7.67
2023-11-08T21:04:13.123Z,7.64
2023-11-08T21:07:18.619Z,7.56
2023-11-08T21:10:22.436Z,7.56
2023-11-08T21:13:24.911Z,7.62
2023-11-08T21:16:27.297Z,7.59
2023-11-08T21:19:29.709Z,7.55
2023-11-08T21:22:32.432Z,7.58
2023-11-08T21:25:34.785Z,7.55
2023-11-08T21:28:37.204Z,7.57
2023-11-08T21:31:39.642Z,7.57
2023-11-08T21:34:43.453Z,7.57
2023-11-08T21:37:45.920Z,7.55
2023-11-08T21:40:51.663Z,7.57
2023-11-08T21:43:54.920Z,7.61
2023-11-08T21:46:57.391Z,7.59
2023-11-08T21:49:59.838Z,7.52
2023-11-08T21:53:02.221Z,7.57
2023-11-08T21:56:04.981Z,7.46
2023-11-08T21:59:07.308Z,7.46
2023-11-08T22:02:09.757Z,7.44
2023-11-08T22:05:12.570Z,7.60
2023-11-08T22:08:14.972Z,7.59
2023-11-08T22:11:17.781Z,7.53
2023-11-08T22:14:20.199Z,7.50
2023-11-08T22:17:22.650Z,7.57
2023-11-08T22:20:24.995Z,7.61
2023-11-08T22:23:27.345Z,7.63
2023-11-08T22:26:30.575Z,7.75
2023-11-08T22:29:33.012Z,7.62
2023-11-08T22:32:35.695Z,7.66
2023-11-08T22:35:40.418Z,7.58
2023-11-08T22:38:43.278Z,7.49
2023-11-08T22:41:46.293Z,7.62
2023-11-08T22:44:48.652Z,7.58
2023-11-08T22:47:50.949Z,7.48
2023-11-08T22:50:53.251Z,7.41
2023-11-08T22:53:55.800Z,7.50
2023-11-08T22:56:58.175Z,7.53
2023-11-08T23:00:00.543Z,7.49
2023-11-08T23:03:03.806Z,7.47
2023-11-08T23:06:07.170Z,7.48
2023-11-08T23:09:09.508Z,7.47
2023-11-08T23:12:12.432Z,7.43
2023-11-08T23:15:14.743Z,7.23
2023-11-08T23:18:18.298Z,7.43
2023-11-08T23:21:21.086Z,7.25
2023-11-08T23:24:23.427Z,7.02
2023-11-08T23:27:30.594Z,7.18
2023-11-08T23:30:33.061Z,7.21
2023-11-08T23:33:36.832Z,7.19
2023-11-08T23:36:39.243Z,6.99
2023-11-08T23:39:41.537Z,7.01
2023-11-08T23:42:43.923Z,7.00
2023-11-08T23:45:46.564Z,6.87
2023-11-08T23:48:49.338Z,6.75
2023-11-08T23:51:51.758Z,6.87
2023-11-08T23:54:54.131Z,6.61
2023-11-08T23:57:56.511Z,6.47
